首页
METAR-TAF:

METAR-TAF

机场 :

Mitiga International Airport

的黎波里, 利比亚

纬度: 32-54N, 经度: 13-17E, 海拔: 11米

METAR: 丢失

时间: 09:14 (07:14 UTC)

预报

该预报发布于8小时和14分钟前的23:00 UTC
预报有效从20日的 00点(UTC)到 20日的 24点(UTC)
风速15节,风向北转东北
能見度: 8000
少量云层高于3000英尺
散云层高于7000英尺

TAF: HLLM 192300Z 2000/2024 03015KT 8000 FEW030 SCT070

超过4000个机场的气象观测和天气预报(METAR&TAF报告)。

可查询的气象台以黄色和红色小点在地图上表示。

将鼠标移到小点上方,可查看气象台名称。

然后点击查看天气观测和预报。

如需切换地图:点击带黑十字的绿色按钮放大地图;点击带横线的绿色按钮缩小地图;或者点击绿色箭头查看邻近地区的地图。


METAR-TAF: